createdAt,value
2022-11-17T00:00:11.383Z,12.05
2022-11-17T00:02:58.887Z,14.50
2022-11-17T00:05:26.722Z,18.25
2022-11-17T00:07:54.193Z,19.35
2022-11-17T00:10:22.043Z,17.52
2022-11-17T00:12:49.357Z,20.95
2022-11-17T00:15:18.911Z,18.48
2022-11-17T00:17:47.023Z,17.48
2022-11-17T00:20:15.250Z,18.02
2022-11-17T00:22:42.749Z,18.25
2022-11-17T00:25:10.487Z,16.73
2022-11-17T00:27:38.050Z,21.83
2022-11-17T00:30:07.292Z,18.23
2022-11-17T00:32:36.133Z,19.58
2022-11-17T00:35:05.818Z,13.52
2022-11-17T00:37:36.551Z,16.33
2022-11-17T00:40:04.943Z,17.60
2022-11-17T00:42:32.346Z,17.70
2022-11-17T00:45:00.101Z,14.85
2022-11-17T00:47:27.514Z,19.92
2022-11-17T00:49:56.896Z,17.95
2022-11-17T00:52:24.338Z,13.82
2022-11-17T00:54:52.132Z,22.00
2022-11-17T00:57:19.508Z,17.00
2022-11-17T00:59:47.307Z,14.18
2022-11-17T01:02:14.700Z,15.73
2022-11-17T01:04:42.665Z,14.98
2022-11-17T01:07:11.454Z,13.10
2022-11-17T01:09:39.303Z,15.07
2022-11-17T01:12:07.122Z,17.23
2022-11-17T01:14:34.950Z,19.52
2022-11-17T01:17:02.527Z,14.85
2022-11-17T01:19:30.486Z,10.98
2022-11-17T01:21:57.847Z,13.88
2022-11-17T01:24:27.463Z,13.55
2022-11-17T01:26:54.749Z,12.65
2022-11-17T01:29:22.651Z,12.95
2022-11-17T01:31:53.560Z,11.40
2022-11-17T01:34:21.456Z,11.68
2022-11-17T01:36:48.974Z,11.35
2022-11-17T01:39:16.412Z,16.20
2022-11-17T01:41:45.751Z,13.07
2022-11-17T01:45:01.847Z,12.95
2022-11-17T01:47:41.434Z,18.27
2022-11-17T01:55:11.271Z,9.23
2022-11-17T01:57:47.047Z,8.15
2022-11-17T02:00:18.505Z,14.52
2022-11-17T02:02:47.459Z,11.80
2022-11-17T02:05:27.197Z,10.40
2022-11-17T02:07:57.502Z,11.95
2022-11-17T02:10:25.174Z,11.88
2022-11-17T02:12:54.893Z,9.80
2022-11-17T02:15:23.309Z,4.22
2022-11-17T02:17:52.096Z,10.95
2022-11-17T02:20:30.879Z,13.48
2022-11-17T02:23:34.780Z,10.68
2022-11-17T02:26:32.267Z,10.82
2022-11-17T02:29:09.833Z,13.10
2022-11-17T02:31:44.470Z,8.02
2022-11-17T02:34:26.307Z,6.05
2022-11-17T02:36:59.049Z,9.00
2022-11-17T02:39:33.755Z,11.45
2022-11-17T02:42:09.370Z,9.32
2022-11-17T02:44:43.548Z,13.07
2022-11-17T02:47:16.088Z,12.27
2022-11-17T02:49:49.530Z,11.68
2022-11-17T02:52:19.258Z,14.85
2022-11-17T02:54:47.140Z,13.27
2022-11-17T02:57:33.508Z,13.18
2022-11-17T03:00:06.094Z,11.38
2022-11-17T03:02:46.757Z,12.30
2022-11-17T03:05:23.452Z,13.63
2022-11-17T03:08:14.251Z,11.57
2022-11-17T03:10:52.455Z,13.88
2022-11-17T03:13:26.454Z,12.80
2022-11-17T03:16:06.411Z,13.98
2022-11-17T03:18:41.416Z,14.18
2022-11-17T03:21:15.686Z,12.70
2022-11-17T03:23:47.141Z,12.43
2022-11-17T03:26:21.046Z,15.38
2022-11-17T03:28:48.988Z,16.02
2022-11-17T03:31:20.399Z,15.40
2022-11-17T03:33:49.928Z,15.80
2022-11-17T03:36:22.491Z,15.80
2022-11-17T03:38:54.615Z,14.10
2022-11-17T03:41:23.712Z,19.83
2022-11-17T03:43:54.046Z,12.32
2022-11-17T03:46:26.796Z,14.98
2022-11-17T03:48:59.790Z,16.63
2022-11-17T03:51:31.594Z,17.55
2022-11-17T03:53:59.839Z,17.73
2022-11-17T03:56:38.372Z,15.43
2022-11-17T03:59:14.030Z,24.17
2022-11-17T04:01:43.876Z,17.05
2022-11-17T04:04:15.209Z,17.67
2022-11-17T04:06:43.338Z,15.27
2022-11-17T04:09:11.027Z,21.67
2022-11-17T04:11:38.875Z,14.73
2022-11-17T04:14:06.399Z,19.80
2022-11-17T04:16:34.419Z,19.15
2022-11-17T04:19:03.348Z,17.58
2022-11-17T04:21:31.371Z,17.38
2022-11-17T04:23:58.763Z,16.58
2022-11-17T04:26:26.720Z,20.13
2022-11-17T04:28:54.391Z,18.83
2022-11-17T04:31:23.743Z,13.73
2022-11-17T04:33:52.516Z,13.25
2022-11-17T04:36:23.547Z,13.80
2022-11-17T04:38:52.330Z,20.38
2022-11-17T04:41:21.573Z,15.57
2022-11-17T04:43:49.379Z,18.40
2022-11-17T04:46:17.945Z,17.95
2022-11-17T04:48:45.612Z,19.60
2022-11-17T04:51:14.436Z,14.25
2022-11-17T04:53:44.177Z,17.58
2022-11-17T04:56:12.484Z,16.75
2022-11-17T04:58:40.123Z,17.98
2022-11-17T05:01:08.230Z,19.60
2022-11-17T05:03:35.847Z,15.85
2022-11-17T05:06:04.320Z,10.73
2022-11-17T05:08:31.775Z,18.10
2022-11-17T05:11:01.151Z,19.25
2022-11-17T05:13:28.736Z,14.68
2022-11-17T05:15:57.719Z,18.85
2022-11-17T05:18:25.040Z,19.20
2022-11-17T05:20:52.910Z,16.40
2022-11-17T05:23:20.318Z,15.57
2022-11-17T05:25:48.109Z,17.48
2022-11-17T05:28:17.160Z,16.02
2022-11-17T05:30:44.964Z,17.13
2022-11-17T05:33:12.499Z,18.17
2022-11-17T05:35:40.508Z,17.02
2022-11-17T05:38:08.118Z,19.13
2022-11-17T05:40:35.983Z,20.15
2022-11-17T05:43:03.490Z,17.05
2022-11-17T05:45:32.750Z,13.10
2022-11-17T05:48:00.125Z,18.67
2022-11-17T05:50:28.209Z,16.65
2022-11-17T05:52:55.539Z,17.35
2022-11-17T05:55:23.578Z,17.77
2022-11-17T05:57:52.606Z,11.90
2022-11-17T06:00:20.843Z,17.67
2022-11-17T06:02:54.122Z,13.43
2022-11-17T06:05:22.298Z,17.65
2022-11-17T06:07:50.691Z,14.55
2022-11-17T06:10:18.128Z,15.38
2022-11-17T06:12:46.308Z,16.85
2022-11-17T06:15:13.946Z,15.35
2022-11-17T06:17:44.934Z,16.27
2022-11-17T06:20:16.959Z,15.48
2022-11-17T06:22:48.690Z,11.90
2022-11-17T06:25:18.276Z,14.65
2022-11-17T06:27:48.269Z,11.82
2022-11-17T06:30:16.043Z,6.38
2022-11-17T06:32:45.244Z,11.73
2022-11-17T06:35:15.014Z,13.02
2022-11-17T06:37:43.264Z,16.40
2022-11-17T06:40:11.250Z,12.98
2022-11-17T06:42:39.621Z,12.23
2022-11-17T06:45:08.389Z,12.02
2022-11-17T06:47:36.327Z,14.65
2022-11-17T06:50:04.124Z,13.80
2022-11-17T06:52:33.859Z,12.75
2022-11-17T06:55:01.301Z,5.78
2022-11-17T06:57:29.980Z,9.52
2022-11-17T06:59:57.338Z,10.57
2022-11-17T07:02:25.072Z,13.68
2022-11-17T07:04:52.695Z,14.88
2022-11-17T07:07:20.551Z,12.20
2022-11-17T07:09:49.496Z,13.45
2022-11-17T07:12:17.493Z,13.73
2022-11-17T07:14:45.093Z,11.02
2022-11-17T07:17:12.992Z,10.32
2022-11-17T07:19:40.963Z,14.95
2022-11-17T07:22:08.857Z,14.15
2022-11-17T07:24:36.382Z,15.93
2022-11-17T07:27:06.156Z,15.82
2022-11-17T07:29:33.814Z,10.27
2022-11-17T07:32:02.202Z,8.60
2022-11-17T07:34:29.555Z,13.60
2022-11-17T07:36:58.616Z,17.70
2022-11-17T07:39:26.188Z,16.63
2022-11-17T07:41:54.282Z,14.68
2022-11-17T07:44:23.184Z,13.05
2022-11-17T07:46:51.320Z,12.60
2022-11-17T07:49:18.693Z,16.42
2022-11-17T07:51:46.568Z,12.23
2022-11-17T07:54:13.921Z,12.60
2022-11-17T07:56:41.687Z,8.65
2022-11-17T07:59:09.607Z,12.75
2022-11-17T08:01:39.053Z,12.75
2022-11-17T08:04:06.483Z,11.43
2022-11-17T08:06:34.523Z,11.82
2022-11-17T08:09:01.852Z,10.07
2022-11-17T08:11:30.149Z,13.00
2022-11-17T08:13:58.057Z,33.10
2022-11-17T08:16:26.148Z,11.80
2022-11-17T08:18:55.048Z,15.35
2022-11-17T08:21:22.888Z,13.07
2022-11-17T08:23:50.748Z,13.50
2022-11-17T08:26:19.360Z,11.23
2022-11-17T08:28:47.253Z,9.80
2022-11-17T08:31:15.238Z,11.32
2022-11-17T08:33:42.673Z,9.52
2022-11-17T08:36:11.933Z,12.48
2022-11-17T08:38:39.403Z,12.40
2022-11-17T08:41:08.508Z,9.68
2022-11-17T08:43:36.175Z,10.68
2022-11-17T08:46:04.626Z,12.82
2022-11-17T08:48:32.132Z,10.30
2022-11-17T08:51:05.259Z,10.77
2022-11-17T08:56:02.013Z,11.25
2022-11-17T08:58:29.581Z,11.50
2022-11-17T09:01:02.285Z,9.40
2022-11-17T09:03:32.388Z,7.82
2022-11-17T09:06:00.682Z,10.77
2022-11-17T09:08:46.121Z,6.18
2022-11-17T09:11:16.576Z,6.35
2022-11-17T09:13:44.468Z,9.48
2022-11-17T09:16:13.383Z,9.38
2022-11-17T09:18:41.619Z,6.43
2022-11-17T09:21:11.877Z,9.05
2022-11-17T09:23:39.574Z,10.05
2022-11-17T09:26:09.937Z,5.35
2022-11-17T09:28:39.636Z,9.15
2022-11-17T09:31:08.845Z,9.65
2022-11-17T09:33:36.813Z,7.88
2022-11-17T09:36:05.474Z,13.10
2022-11-17T09:38:33.392Z,5.60
2022-11-17T09:41:09.632Z,10.38
2022-11-17T09:43:42.593Z,5.35
2022-11-17T09:46:15.119Z,6.93
2022-11-17T09:48:48.937Z,7.50
2022-11-17T09:51:21.764Z,8.82
2022-11-17T09:53:54.689Z,11.00
2022-11-17T09:56:22.648Z,7.70
2022-11-17T09:58:55.230Z,11.80
2022-11-17T10:01:23.619Z,6.30
2022-11-17T10:03:51.645Z,6.13
2022-11-17T10:06:21.823Z,7.32
2022-11-17T10:08:58.375Z,7.13
2022-11-17T10:11:30.441Z,8.00
2022-11-17T10:14:01.552Z,8.27
2022-11-17T10:16:30.077Z,7.45
2022-11-17T10:18:57.794Z,9.60
2022-11-17T10:21:29.519Z,5.45
2022-11-17T10:23:58.973Z,7.70
2022-11-17T10:26:26.990Z,8.73
2022-11-17T10:29:12.406Z,8.90
2022-11-17T10:31:42.614Z,10.95
2022-11-17T10:34:11.717Z,9.45
2022-11-17T10:36:48.060Z,6.88
2022-11-17T10:39:36.305Z,7.88
2022-11-17T10:42:18.494Z,10.18
2022-11-17T10:44:50.420Z,8.45
2022-11-17T10:50:08.524Z,7.82
2022-11-17T10:52:36.724Z,7.82
2022-11-17T10:55:18.794Z,5.38
2022-11-17T10:57:50.040Z,8.68
2022-11-17T11:00:30.951Z,9.27
2022-11-17T11:03:16.630Z,7.20
2022-11-17T11:06:07.046Z,8.88
2022-11-17T11:08:58.682Z,7.53
2022-11-17T11:11:39.445Z,4.65
2022-11-17T11:14:15.160Z,8.85
2022-11-17T11:16:48.409Z,10.57
2022-11-17T11:19:18.311Z,6.13
2022-11-17T11:22:07.279Z,7.47
2022-11-17T11:24:42.486Z,5.82
2022-11-17T11:27:28.426Z,6.70
2022-11-17T11:30:02.796Z,5.82
2022-11-17T11:32:41.142Z,4.07
2022-11-17T11:35:35.491Z,4.45
2022-11-17T11:38:15.157Z,6.20
2022-11-17T11:40:48.063Z,4.85
2022-11-17T11:43:31.792Z,7.00
2022-11-17T11:46:08.385Z,5.22
2022-11-17T11:48:40.709Z,5.47
2022-11-17T11:51:14.642Z,6.20
2022-11-17T11:53:52.334Z,5.43
2022-11-17T11:56:25.815Z,7.32
2022-11-17T11:59:00.823Z,7.40
2022-11-17T12:01:31.100Z,8.20
2022-11-17T12:04:14.135Z,6.05
2022-11-17T12:06:49.531Z,7.57
2022-11-17T12:09:40.897Z,10.52
2022-11-17T12:12:13.381Z,6.95
2022-11-17T12:15:11.693Z,5.28
2022-11-17T12:17:57.534Z,7.57
2022-11-17T12:20:57.854Z,3.78
2022-11-17T12:23:42.697Z,5.03
2022-11-17T12:26:22.319Z,6.13
2022-11-17T12:28:49.992Z,4.53
2022-11-17T12:31:42.697Z,6.35
2022-11-17T12:34:23.221Z,2.72
2022-11-17T12:37:29.347Z,10.23
2022-11-17T12:40:04.191Z,6.65
2022-11-17T12:42:33.162Z,6.78
2022-11-17T12:45:09.161Z,8.02
2022-11-17T12:47:38.606Z,8.52
2022-11-17T12:50:36.845Z,7.85
2022-11-17T12:53:39.683Z,7.32
2022-11-17T12:56:37.197Z,10.63
2022-11-17T12:59:35.189Z,7.05
2022-11-17T13:02:19.750Z,9.77
2022-11-17T13:04:52.213Z,9.25
2022-11-17T13:07:21.573Z,7.15
2022-11-17T13:09:53.573Z,7.65
2022-11-17T13:12:27.142Z,8.93
2022-11-17T13:14:56.949Z,7.38
2022-11-17T13:17:28.261Z,7.55
2022-11-17T13:20:04.332Z,5.68
2022-11-17T13:22:32.387Z,8.02
2022-11-17T13:25:13.070Z,5.53
2022-11-17T13:27:51.136Z,7.68
2022-11-17T13:30:24.853Z,8.98
2022-11-17T13:32:52.592Z,7.88
2022-11-17T13:35:22.998Z,8.93
2022-11-17T13:38:06.538Z,9.90
2022-11-17T13:40:35.832Z,5.40
2022-11-17T13:43:06.960Z,7.80
2022-11-17T13:45:34.744Z,5.65
2022-11-17T13:48:02.293Z,6.93
2022-11-17T13:50:36.839Z,8.63
2022-11-17T13:53:23.454Z,11.18
2022-11-17T13:55:52.401Z,5.82
2022-11-17T13:58:37.289Z,6.30
2022-11-17T14:01:05.958Z,7.07
2022-11-17T14:03:37.885Z,8.27
2022-11-17T14:06:07.759Z,6.53
2022-11-17T14:08:36.279Z,8.20
2022-11-17T14:11:18.264Z,7.13
2022-11-17T14:13:48.056Z,9.13
2022-11-17T14:16:22.434Z,8.48
2022-11-17T14:19:01.916Z,9.27
2022-11-17T14:21:31.705Z,9.82
2022-11-17T14:24:05.340Z,7.25
2022-11-17T14:26:33.533Z,5.65
2022-11-17T14:29:02.559Z,8.77
2022-11-17T14:31:31.818Z,10.07
2022-11-17T14:33:59.267Z,7.13
2022-11-17T14:36:27.104Z,10.80
2022-11-17T14:38:54.908Z,8.48
2022-11-17T14:41:22.680Z,8.13
2022-11-17T14:43:50.208Z,11.30
2022-11-17T14:46:21.954Z,7.10
2022-11-17T14:48:49.562Z,9.90
2022-11-17T14:51:19.240Z,6.72
2022-11-17T14:53:47.808Z,9.50
2022-11-17T14:56:17.719Z,11.90
2022-11-17T14:58:45.609Z,9.07
2022-11-17T15:01:17.098Z,6.85
2022-11-17T15:03:46.502Z,11.40
2022-11-17T15:06:19.327Z,11.15
2022-11-17T15:08:48.009Z,13.90
2022-11-17T15:11:18.133Z,6.50
2022-11-17T15:13:45.629Z,6.43
2022-11-17T15:16:13.551Z,11.40
2022-11-17T15:18:44.109Z,10.00
2022-11-17T15:21:14.776Z,9.98
2022-11-17T15:23:42.971Z,11.05
2022-11-17T15:26:14.457Z,9.07
2022-11-17T15:28:42.542Z,12.32
2022-11-17T15:31:15.034Z,8.77
2022-11-17T15:33:43.755Z,11.07
2022-11-17T15:36:15.105Z,8.65
2022-11-17T15:38:43.114Z,9.30
2022-11-17T15:41:13.186Z,12.60
2022-11-17T15:43:42.322Z,11.57
2022-11-17T15:46:12.226Z,10.10
2022-11-17T15:48:41.021Z,8.30
2022-11-17T15:51:11.370Z,11.02
2022-11-17T15:53:41.164Z,7.00
2022-11-17T15:56:11.360Z,7.47
2022-11-17T15:58:40.280Z,7.00
2022-11-17T16:01:10.451Z,7.47
2022-11-17T16:03:38.623Z,3.63
2022-11-17T16:06:07.356Z,6.32
2022-11-17T16:08:35.328Z,10.18
2022-11-17T16:11:06.351Z,6.05
2022-11-17T16:13:34.047Z,4.70
2022-11-17T16:16:02.665Z,13.10
2022-11-17T16:18:32.309Z,5.60
2022-11-17T16:21:04.774Z,6.60
2022-11-17T16:23:38.231Z,5.15
2022-11-17T16:26:08.353Z,9.52
2022-11-17T16:28:35.980Z,4.97
2022-11-17T16:31:13.467Z,11.02
2022-11-17T16:33:47.056Z,9.43
2022-11-17T16:36:15.306Z,10.68
2022-11-17T16:38:59.866Z,12.57
2022-11-17T16:41:32.797Z,6.78
2022-11-17T16:44:00.954Z,11.93
2022-11-17T16:46:30.658Z,12.98
2022-11-17T16:49:01.833Z,11.48
2022-11-17T16:51:29.819Z,9.90
2022-11-17T16:53:59.045Z,11.15
2022-11-17T16:56:27.299Z,7.20
2022-11-17T16:58:56.486Z,12.57
2022-11-17T17:01:26.660Z,9.02
2022-11-17T17:03:57.631Z,11.82
2022-11-17T17:06:25.830Z,6.78
2022-11-17T17:08:54.527Z,9.38
2022-11-17T17:11:23.081Z,9.20
2022-11-17T17:13:50.825Z,6.68
2022-11-17T17:16:20.732Z,12.35
2022-11-17T17:18:48.812Z,8.98
2022-11-17T17:21:19.177Z,7.30
2022-11-17T17:23:46.702Z,9.82
2022-11-17T17:26:16.603Z,6.93
2022-11-17T17:28:45.579Z,7.10
2022-11-17T17:31:20.810Z,7.82
2022-11-17T17:33:51.063Z,4.63
2022-11-17T17:36:20.819Z,6.93
2022-11-17T17:38:54.601Z,6.90
2022-11-17T17:41:25.120Z,7.15
2022-11-17T17:44:23.364Z,8.57
2022-11-17T17:46:51.479Z,7.07
2022-11-17T17:49:20.765Z,6.22
2022-11-17T17:51:48.510Z,5.63
2022-11-17T17:54:17.830Z,6.68
2022-11-17T17:56:46.173Z,8.85
2022-11-17T17:59:14.659Z,7.00
2022-11-17T18:01:43.624Z,7.15
2022-11-17T18:04:15.465Z,5.60
2022-11-17T18:09:13.733Z,7.10
2022-11-17T18:11:42.096Z,6.57
2022-11-17T18:14:10.206Z,4.97
2022-11-17T18:16:38.391Z,7.30
2022-11-17T18:19:07.970Z,13.65
2022-11-17T18:21:39.883Z,3.85
2022-11-17T18:24:10.055Z,5.25
2022-11-17T18:26:38.604Z,3.70
2022-11-17T18:29:09.577Z,8.13
2022-11-17T18:31:37.837Z,5.32
2022-11-17T18:34:07.568Z,5.75
2022-11-17T18:36:35.735Z,5.13
2022-11-17T18:39:03.733Z,6.03
2022-11-17T18:41:42.396Z,5.40
2022-11-17T18:44:12.182Z,7.10
2022-11-17T18:46:40.281Z,6.50
2022-11-17T18:49:07.967Z,5.82
2022-11-17T18:51:35.753Z,6.75
2022-11-17T18:54:03.790Z,4.25
2022-11-17T18:56:35.282Z,6.32
2022-11-17T18:59:03.919Z,6.85
2022-11-17T19:01:31.795Z,5.93
2022-11-17T19:04:00.354Z,4.53
2022-11-17T19:06:28.285Z,5.18
2022-11-17T19:08:57.886Z,6.45
2022-11-17T19:11:26.756Z,3.53
2022-11-17T19:13:56.052Z,4.07
2022-11-17T19:16:25.615Z,7.35
2022-11-17T19:18:55.410Z,8.05
2022-11-17T19:21:25.101Z,5.43
2022-11-17T19:23:53.999Z,5.70
2022-11-17T19:26:23.920Z,6.50
2022-11-17T19:28:56.808Z,5.50
2022-11-17T19:31:25.203Z,6.43
2022-11-17T19:33:53.922Z,8.90
2022-11-17T19:36:23.951Z,6.82
2022-11-17T19:38:53.032Z,6.25
2022-11-17T19:41:23.344Z,9.02
2022-11-17T19:43:53.240Z,6.70
2022-11-17T19:46:24.005Z,7.95
2022-11-17T19:48:52.243Z,5.65
2022-11-17T19:51:21.950Z,7.20
2022-11-17T19:53:51.201Z,9.82
2022-11-17T19:56:19.829Z,7.15
2022-11-17T19:58:48.050Z,5.20
2022-11-17T20:01:17.453Z,6.97
2022-11-17T20:03:47.312Z,7.35
2022-11-17T20:06:16.692Z,5.45
2022-11-17T20:08:45.160Z,6.85
2022-11-17T20:11:14.150Z,7.70
2022-11-17T20:13:41.835Z,5.40
2022-11-17T20:16:12.613Z,7.93
2022-11-17T20:18:40.852Z,8.90
2022-11-17T20:21:11.585Z,4.85
2022-11-17T20:23:39.040Z,10.55
2022-11-17T20:26:08.828Z,7.53
2022-11-17T20:28:37.799Z,7.07
2022-11-17T20:31:10.097Z,6.55
2022-11-17T20:33:38.082Z,4.82
2022-11-17T20:36:07.361Z,8.98
2022-11-17T20:38:36.403Z,6.35
2022-11-17T20:41:04.883Z,6.55
2022-11-17T20:43:33.199Z,6.53
2022-11-17T20:46:02.332Z,5.97
2022-11-17T20:48:30.389Z,6.47
2022-11-17T20:50:59.477Z,9.68
2022-11-17T20:53:27.305Z,8.50
2022-11-17T20:55:57.736Z,7.10
2022-11-17T20:58:25.647Z,6.10
2022-11-17T21:00:54.238Z,6.18
2022-11-17T21:03:22.947Z,8.55
2022-11-17T21:05:58.443Z,10.95
2022-11-17T21:08:29.197Z,7.63
2022-11-17T21:10:59.973Z,8.18
2022-11-17T21:13:28.126Z,12.00
2022-11-17T21:16:07.634Z,8.52
2022-11-17T21:18:36.075Z,7.55
2022-11-17T21:21:04.818Z,9.00
2022-11-17T21:23:32.562Z,9.00
2022-11-17T21:26:05.242Z,8.93
2022-11-17T21:28:32.834Z,11.13
2022-11-17T21:31:05.045Z,10.30
2022-11-17T21:33:32.495Z,9.95
2022-11-17T21:36:01.419Z,7.45
2022-11-17T21:38:28.959Z,9.80
2022-11-17T21:41:01.609Z,8.13
2022-11-17T21:43:30.799Z,10.93
2022-11-17T21:46:01.438Z,4.68
2022-11-17T21:48:29.145Z,8.05
2022-11-17T21:50:57.466Z,5.38
2022-11-17T21:53:24.794Z,7.97
2022-11-17T21:55:53.061Z,8.25
2022-11-17T21:58:20.482Z,8.32
2022-11-17T22:00:49.959Z,9.00
2022-11-17T22:03:17.504Z,6.70
2022-11-17T22:05:45.547Z,8.43
2022-11-17T22:08:13.045Z,9.73
2022-11-17T22:10:40.821Z,6.85
2022-11-17T22:13:08.303Z,7.13
2022-11-17T22:15:36.197Z,8.60
2022-11-17T22:18:05.815Z,9.02
2022-11-17T22:20:33.828Z,9.80
2022-11-17T22:23:01.239Z,8.02
2022-11-17T22:25:44.913Z,8.15
2022-11-17T22:28:13.267Z,6.88
2022-11-17T22:30:41.305Z,10.05
2022-11-17T22:33:10.279Z,9.02
2022-11-17T22:35:38.200Z,11.48
2022-11-17T22:38:05.646Z,11.05
2022-11-17T22:40:33.734Z,9.57
2022-11-17T22:43:04.312Z,9.80
2022-11-17T22:45:35.753Z,10.68
2022-11-17T22:48:03.321Z,8.50
2022-11-17T22:50:32.836Z,10.43
2022-11-17T22:53:01.400Z,9.43
2022-11-17T22:55:29.388Z,8.70
2022-11-17T22:57:57.005Z,12.27
2022-11-17T23:00:25.318Z,11.98
2022-11-17T23:02:53.095Z,13.27
2022-11-17T23:05:20.770Z,9.23
2022-11-17T23:07:49.660Z,12.68
2022-11-17T23:10:17.880Z,13.43
2022-11-17T23:12:45.496Z,12.90
2022-11-17T23:15:13.443Z,15.55
2022-11-17T23:17:40.906Z,14.27
2022-11-17T23:20:10.387Z,14.50
2022-11-17T23:22:37.904Z,10.60
2022-11-17T23:25:08.104Z,15.07
2022-11-17T23:27:35.929Z,17.30
2022-11-17T23:30:04.728Z,13.35
2022-11-17T23:32:32.294Z,9.10
2022-11-17T23:35:00.452Z,13.65
2022-11-17T23:37:28.375Z,11.90
2022-11-17T23:39:56.227Z,14.70
2022-11-17T23:42:28.621Z,12.10
2022-11-17T23:45:00.360Z,11.40
2022-11-17T23:47:28.063Z,13.20
2022-11-17T23:49:56.111Z,13.32
2022-11-17T23:52:23.521Z,14.05
2022-11-17T23:54:51.523Z,12.20
2022-11-17T23:57:19.073Z,13.05
2022-11-17T23:59:48.835Z,11.90
